sensor_id;sensor_type;location;lat;lon;timestamp;pressure;altitude;pressure_sealevel;temperature;humidity
50672;BME280;46021;55.882;37.654;2023-03-31T00:01:59;98909.91;;;-0.96;73.55
50672;BME280;46021;55.882;37.654;2023-03-31T00:04:27;98903.91;;;-1.01;73.90
50672;BME280;46021;55.882;37.654;2023-03-31T00:06:56;98897.94;;;-1.05;73.45
50672;BME280;46021;55.882;37.654;2023-03-31T00:09:24;98908.19;;;-1.03;74.51
50672;BME280;46021;55.882;37.654;2023-03-31T00:11:54;98909.88;;;-1.05;74.33
50672;BME280;46021;55.882;37.654;2023-03-31T00:14:23;98897.94;;;-1.09;74.39
50672;BME280;46021;55.882;37.654;2023-03-31T00:16:50;98905.59;;;-1.06;73.79
50672;BME280;46021;55.882;37.654;2023-03-31T00:19:17;98898.78;;;-1.10;74.30
50672;BME280;46021;55.882;37.654;2023-03-31T00:21:45;98903.03;;;-1.14;74.38
50672;BME280;46021;55.882;37.654;2023-03-31T00:24:14;98902.19;;;-1.19;74.48
50672;BME280;46021;55.882;37.654;2023-03-31T00:26:41;98909.00;;;-1.15;74.04
50672;BME280;46021;55.882;37.654;2023-03-31T00:29:12;98900.47;;;-1.15;73.62
50672;BME280;46021;55.882;37.654;2023-03-31T00:31:40;98908.97;;;-1.20;73.92
50672;BME280;46021;55.882;37.654;2023-03-31T00:34:07;98899.59;;;-1.24;74.22
50672;BME280;46021;55.882;37.654;2023-03-31T00:36:34;98903.84;;;-1.26;74.45
50672;BME280;46021;55.882;37.654;2023-03-31T00:39:12;98896.97;;;-1.44;74.20
50672;BME280;46021;55.882;37.654;2023-03-31T00:41:40;98909.78;;;-1.33;74.74
50672;BME280;46021;55.882;37.654;2023-03-31T00:44:11;98900.44;;;-1.31;74.35
50672;BME280;46021;55.882;37.654;2023-03-31T00:46:46;98904.69;;;-1.27;74.32
50672;BME280;46021;55.882;37.654;2023-03-31T00:49:22;98891.09;;;-1.23;74.78
50672;BME280;46021;55.882;37.654;2023-03-31T00:51:53;98893.66;;;-1.18;74.13
50672;BME280;46021;55.882;37.654;2023-03-31T00:54:22;98891.94;;;-1.18;74.83
50672;BME280;46021;55.882;37.654;2023-03-31T00:56:52;98890.22;;;-1.22;74.01
50672;BME280;46021;55.882;37.654;2023-03-31T00:59:25;98890.25;;;-1.17;74.24
50672;BME280;46021;55.882;37.654;2023-03-31T01:01:55;98897.06;;;-1.14;74.15
50672;BME280;46021;55.882;37.654;2023-03-31T01:04:31;98897.91;;;-1.15;74.62
50672;BME280;46021;55.882;37.654;2023-03-31T01:07:05;98890.25;;;-1.20;74.58
50672;BME280;46021;55.882;37.654;2023-03-31T01:09:37;98885.09;;;-1.29;73.97
50672;BME280;46021;55.882;37.654;2023-03-31T01:12:07;98886.81;;;-1.28;74.60
50672;BME280;46021;55.882;37.654;2023-03-31T01:14:36;98879.97;;;-1.37;74.19
50672;BME280;46021;55.882;37.654;2023-03-31T01:17:06;98875.66;;;-1.44;74.52
50672;BME280;46021;55.882;37.654;2023-03-31T01:19:47;98876.53;;;-1.42;74.53
50672;BME280;46021;55.882;37.654;2023-03-31T01:28:37;98860.31;;;-1.46;74.95
50672;BME280;46021;55.882;37.654;2023-03-31T01:34:32;98867.16;;;-1.45;74.92
50672;BME280;46021;55.882;37.654;2023-03-31T01:37:31;98861.19;;;-1.45;75.46
50672;BME280;46021;55.882;37.654;2023-03-31T01:40:30;98857.78;;;-1.43;74.70
50672;BME280;46021;55.882;37.654;2023-03-31T01:43:03;98846.72;;;-1.43;75.17
50672;BME280;46021;55.882;37.654;2023-03-31T01:45:42;98834.78;;;-1.47;75.08
50672;BME280;46021;55.882;37.654;2023-03-31T01:48:12;98851.81;;;-1.46;75.29
50672;BME280;46021;55.882;37.654;2023-03-31T01:50:46;98849.25;;;-1.45;74.16
50672;BME280;46021;55.882;37.654;2023-03-31T01:53:18;98855.22;;;-1.50;75.01
50672;BME280;46021;55.882;37.654;2023-03-31T01:55:54;98845.81;;;-1.56;75.54
50672;BME280;46021;55.882;37.654;2023-03-31T01:58:27;98849.25;;;-1.51;75.39
50672;BME280;46021;55.882;37.654;2023-03-31T02:01:01;98842.41;;;-1.57;75.35
50672;BME280;46021;55.882;37.654;2023-03-31T02:03:32;98844.94;;;-1.61;75.26
50672;BME280;46021;55.882;37.654;2023-03-31T02:06:06;98843.25;;;-1.61;75.48
50672;BME280;46021;55.882;37.654;2023-03-31T02:08:39;98843.28;;;-1.54;75.57
50672;BME280;46021;55.882;37.654;2023-03-31T02:11:10;98838.16;;;-1.51;75.34
50672;BME280;46021;55.882;37.654;2023-03-31T02:13:42;98831.34;;;-1.52;75.50
50672;BME280;46021;55.882;37.654;2023-03-31T02:16:14;98827.94;;;-1.56;75.13
50672;BME280;46021;55.882;37.654;2023-03-31T02:18:45;98832.19;;;-1.53;75.08
50672;BME280;46021;55.882;37.654;2023-03-31T02:21:15;98834.75;;;-1.50;75.29
50672;BME280;46021;55.882;37.654;2023-03-31T02:23:43;98838.16;;;-1.51;75.20
50672;BME280;46021;55.882;37.654;2023-03-31T02:26:15;98835.63;;;-1.53;75.25
50672;BME280;46021;55.882;37.654;2023-03-31T02:28:45;98840.72;;;-1.51;74.91
50672;BME280;46021;55.882;37.654;2023-03-31T02:31:24;98838.16;;;-1.51;74.53
50672;BME280;46021;55.882;37.654;2023-03-31T02:33:53;98833.06;;;-1.54;74.92
50672;BME280;46021;55.882;37.654;2023-03-31T02:36:21;98840.72;;;-1.50;75.08
50672;BME280;46021;55.882;37.654;2023-03-31T02:38:53;98838.16;;;-1.50;74.90
50672;BME280;46021;55.882;37.654;2023-03-31T02:41:23;98837.28;;;-1.53;74.70
50672;BME280;46021;55.882;37.654;2023-03-31T02:43:50;98843.25;;;-1.58;74.97
50672;BME280;46021;55.882;37.654;2023-03-31T02:46:17;98839.00;;;-1.60;75.30
50672;BME280;46021;55.882;37.654;2023-03-31T02:48:47;98823.66;;;-1.66;75.31
50672;BME280;46021;55.882;37.654;2023-03-31T02:54:54;98837.28;;;-1.66;75.01
50672;BME280;46021;55.882;37.654;2023-03-31T02:57:40;98827.03;;;-1.69;74.88
50672;BME280;46021;55.882;37.654;2023-03-31T03:00:19;98842.38;;;-1.66;74.81
50672;BME280;46021;55.882;37.654;2023-03-31T03:03:01;98846.63;;;-1.68;74.77
50672;BME280;46021;55.882;37.654;2023-03-31T03:05:35;98849.16;;;-1.72;75.01
50672;BME280;46021;55.882;37.654;2023-03-31T03:08:51;98848.31;;;-1.73;75.11
50672;BME280;46021;55.882;37.654;2023-03-31T03:11:28;98846.63;;;-1.68;74.88
50672;BME280;46021;55.882;37.654;2023-03-31T03:14:04;98835.53;;;-1.71;74.80
50672;BME280;46021;55.882;37.654;2023-03-31T03:16:38;98835.53;;;-1.73;74.53
50672;BME280;46021;55.882;37.654;2023-03-31T03:19:07;98826.19;;;-1.69;74.96
50672;BME280;46021;55.882;37.654;2023-03-31T03:21:35;98839.81;;;-1.66;75.37
50672;BME280;46021;55.882;37.654;2023-03-31T03:24:02;98844.94;;;-1.60;74.96
50672;BME280;46021;55.882;37.654;2023-03-31T03:26:29;98847.53;;;-1.55;75.03
50672;BME280;46021;55.882;37.654;2023-03-31T03:29:01;98848.38;;;-1.51;75.11
50672;BME280;46021;55.882;37.654;2023-03-31T03:31:28;98837.31;;;-1.52;74.98
50672;BME280;46021;55.882;37.654;2023-03-31T03:33:58;98835.63;;;-1.48;74.59
50672;BME280;46021;55.882;37.654;2023-03-31T03:36:25;98831.34;;;-1.49;74.81
50672;BME280;46021;55.882;37.654;2023-03-31T03:38:52;98823.69;;;-1.51;75.10
50672;BME280;46021;55.882;37.654;2023-03-31T03:41:19;98819.44;;;-1.44;74.61
50672;BME280;46021;55.882;37.654;2023-03-31T03:43:46;98822.03;;;-1.40;75.05
50672;BME280;46021;55.882;37.654;2023-03-31T03:46:15;98816.91;;;-1.37;74.75
50672;BME280;46021;55.882;37.654;2023-03-31T03:48:42;98824.56;;;-1.40;74.57
50672;BME280;46021;55.882;37.654;2023-03-31T03:51:09;98806.66;;;-1.46;74.97
50672;BME280;46021;55.882;37.654;2023-03-31T03:53:36;98816.91;;;-1.41;74.92
50672;BME280;46021;55.882;37.654;2023-03-31T03:56:04;98815.19;;;-1.39;74.58
50672;BME280;46021;55.882;37.654;2023-03-31T03:58:31;98789.59;;;-1.51;74.74
50672;BME280;46021;55.882;37.654;2023-03-31T04:00:58;98771.72;;;-1.61;74.93
50672;BME280;46021;55.882;37.654;2023-03-31T04:03:26;98775.97;;;-1.57;74.84
50672;BME280;46021;55.882;37.654;2023-03-31T04:05:53;98777.66;;;-1.60;74.79
50672;BME280;46021;55.882;37.654;2023-03-31T04:08:20;98777.66;;;-1.66;74.76
50672;BME280;46021;55.882;37.654;2023-03-31T04:10:48;98777.66;;;-1.62;74.76
50672;BME280;46021;55.882;37.654;2023-03-31T04:13:16;98772.50;;;-1.79;74.48
50672;BME280;46021;55.882;37.654;2023-03-31T04:15:43;98769.13;;;-1.78;74.98
50672;BME280;46021;55.882;37.654;2023-03-31T04:18:11;98781.00;;;-1.78;75.30
50672;BME280;46021;55.882;37.654;2023-03-31T04:20:44;98774.19;;;-1.81;75.23
50672;BME280;46021;55.882;37.654;2023-03-31T04:23:20;98782.69;;;-1.92;75.95
50672;BME280;46021;55.882;37.654;2023-03-31T04:25:51;98770.75;;;-1.87;75.77
50672;BME280;46021;55.882;37.654;2023-03-31T04:28:18;98769.06;;;-1.87;75.35
50672;BME280;46021;55.882;37.654;2023-03-31T04:30:45;98769.06;;;-1.84;75.61
50672;BME280;46021;55.882;37.654;2023-03-31T04:33:13;98768.22;;;-1.90;75.71
50672;BME280;46021;55.882;37.654;2023-03-31T04:35:42;98767.31;;;-1.97;75.80
50672;BME280;46021;55.882;37.654;2023-03-31T04:38:16;98773.31;;;-1.87;75.78
50672;BME280;46021;55.882;37.654;2023-03-31T04:40:45;98768.16;;;-2.00;76.74
50672;BME280;46021;55.882;37.654;2023-03-31T04:43:13;98771.59;;;-1.91;76.09
50672;BME280;46021;55.882;37.654;2023-03-31T04:45:41;98775.91;;;-1.81;76.16
50672;BME280;46021;55.882;37.654;2023-03-31T04:48:08;98771.63;;;-1.88;76.42
50672;BME280;46021;55.882;37.654;2023-03-31T04:50:35;98767.41;;;-1.72;76.14
50672;BME280;46021;55.882;37.654;2023-03-31T04:53:03;98761.47;;;-1.58;76.38
50672;BME280;46021;55.882;37.654;2023-03-31T04:55:32;98757.19;;;-1.72;76.05
50672;BME280;46021;55.882;37.654;2023-03-31T04:57:59;98742.78;;;-1.47;75.72
50672;BME280;46021;55.882;37.654;2023-03-31T05:00:27;98736.78;;;-1.51;75.71
50672;BME280;46021;55.882;37.654;2023-03-31T05:02:54;98735.97;;;-1.45;75.35
50672;BME280;46021;55.882;37.654;2023-03-31T05:05:21;98752.97;;;-1.55;75.77
50672;BME280;46021;55.882;37.654;2023-03-31T05:07:48;98760.66;;;-1.50;75.68
50672;BME280;46021;55.882;37.654;2023-03-31T05:10:16;98763.19;;;-1.50;76.09
50672;BME280;46021;55.882;37.654;2023-03-31T05:12:44;98765.78;;;-1.47;76.00
50672;BME280;46021;55.882;37.654;2023-03-31T05:15:12;98743.59;;;-1.50;76.03
50672;BME280;46021;55.882;37.654;2023-03-31T05:17:39;98751.28;;;-1.45;76.12
50672;BME280;46021;55.882;37.654;2023-03-31T05:20:07;98762.34;;;-1.46;76.58
50672;BME280;46021;55.882;37.654;2023-03-31T05:22:34;98753.00;;;-1.35;75.89
50672;BME280;46021;55.882;37.654;2023-03-31T05:25:03;98754.72;;;-1.22;75.54
50672;BME280;46021;55.882;37.654;2023-03-31T05:27:31;98747.03;;;-1.12;76.06
50672;BME280;46021;55.882;37.654;2023-03-31T05:30:00;98752.16;;;-1.09;75.31
50672;BME280;46021;55.882;37.654;2023-03-31T05:32:27;98759.81;;;-1.12;75.76
50672;BME280;46021;55.882;37.654;2023-03-31T05:34:54;98762.41;;;-1.09;75.23
50672;BME280;46021;55.882;37.654;2023-03-31T05:37:22;98758.97;;;-1.24;75.23
50672;BME280;46021;55.882;37.654;2023-03-31T05:39:50;98761.53;;;-1.11;75.28
50672;BME280;46021;55.882;37.654;2023-03-31T05:42:18;98749.59;;;-1.22;75.83
50672;BME280;46021;55.882;37.654;2023-03-31T05:44:45;98746.19;;;-1.08;75.33
50672;BME280;46021;55.882;37.654;2023-03-31T05:47:14;98737.66;;;-1.04;75.70
50672;BME280;46021;55.882;37.654;2023-03-31T05:49:41;98724.88;;;-1.12;75.80
50672;BME280;46021;55.882;37.654;2023-03-31T05:52:08;98739.34;;;-0.97;75.26
50672;BME280;46021;55.882;37.654;2023-03-31T05:54:36;98753.03;;;-0.89;75.94
50672;BME280;46021;55.882;37.654;2023-03-31T05:57:03;98741.91;;;-0.88;75.13
50672;BME280;46021;55.882;37.654;2023-03-31T05:59:30;98740.19;;;-0.73;75.30
50672;BME280;46021;55.882;37.654;2023-03-31T06:01:59;98729.94;;;-0.67;75.32
50672;BME280;46021;55.882;37.654;2023-03-31T06:04:28;98722.25;;;-0.56;74.67
50672;BME280;46021;55.882;37.654;2023-03-31T06:06:55;98708.56;;;-0.48;74.56
50672;BME280;46021;55.882;37.654;2023-03-31T06:09:23;98718.81;;;-0.43;74.96
50672;BME280;46021;55.882;37.654;2023-03-31T06:11:50;98724.78;;;-0.50;73.66
50672;BME280;46021;55.882;37.654;2023-03-31T06:14:18;98715.41;;;-0.57;73.85
50672;BME280;46021;55.882;37.654;2023-03-31T06:16:45;98729.09;;;-0.63;73.81
50672;BME280;46021;55.882;37.654;2023-03-31T06:19:12;98724.84;;;-0.64;74.95
50672;BME280;46021;55.882;37.654;2023-03-31T06:21:41;98725.69;;;-0.71;74.95
50672;BME280;46021;55.882;37.654;2023-03-31T06:24:08;98718.84;;;-0.66;73.78
50672;BME280;46021;55.882;37.654;2023-03-31T06:26:35;98722.31;;;-0.84;74.64
50672;BME280;46021;55.882;37.654;2023-03-31T06:29:02;98712.91;;;-0.79;75.22
50672;BME280;46021;55.882;37.654;2023-03-31T06:31:30;98721.47;;;-0.83;74.90
50672;BME280;46021;55.882;37.654;2023-03-31T06:33:57;98727.41;;;-0.64;75.20
50672;BME280;46021;55.882;37.654;2023-03-31T06:36:24;98731.63;;;-0.55;74.97
50672;BME280;46021;55.882;37.654;2023-03-31T06:38:53;98731.63;;;-0.55;74.20
50672;BME280;46021;55.882;37.654;2023-03-31T06:41:20;98741.00;;;-0.48;74.68
50672;BME280;46021;55.882;37.654;2023-03-31T06:43:48;98737.53;;;-0.38;74.02
50672;BME280;46021;55.882;37.654;2023-03-31T06:46:16;98725.59;;;-0.41;73.29
50672;BME280;46021;55.882;37.654;2023-03-31T06:48:43;98727.31;;;-0.40;73.21
50672;BME280;46021;55.882;37.654;2023-03-31T06:51:10;98717.06;;;-0.36;74.67
50672;BME280;46021;55.882;37.654;2023-03-31T06:53:37;98717.03;;;-0.30;73.10
50672;BME280;46021;55.882;37.654;2023-03-31T06:56:06;98723.00;;;-0.25;74.76
50672;BME280;46021;55.882;37.654;2023-03-31T06:58:34;98702.50;;;-0.27;74.14
50672;BME280;46021;55.882;37.654;2023-03-31T07:01:01;98697.34;;;-0.17;73.70
50672;BME280;46021;55.882;37.654;2023-03-31T07:03:28;98705.94;;;-0.29;74.06
50672;BME280;46021;55.882;37.654;2023-03-31T07:05:56;98715.34;;;-0.31;74.33
50672;BME280;46021;55.882;37.654;2023-03-31T07:08:23;98711.03;;;-0.23;74.38
50672;BME280;46021;55.882;37.654;2023-03-31T07:10:52;98708.50;;;-0.26;74.19
50672;BME280;46021;55.882;37.654;2023-03-31T07:13:22;98713.59;;;-0.17;74.19
50672;BME280;46021;55.882;37.654;2023-03-31T07:15:49;98699.03;;;-0.06;73.69
50672;BME280;46021;55.882;37.654;2023-03-31T07:18:17;98706.63;;;0.07;73.47
50672;BME280;46021;55.882;37.654;2023-03-31T07:20:46;98703.22;;;0.08;73.20
50672;BME280;46021;55.882;37.654;2023-03-31T07:23:14;98703.97;;;0.22;74.30
50672;BME280;46021;55.882;37.654;2023-03-31T07:25:41;98698.81;;;0.30;74.39
50672;BME280;46021;55.882;37.654;2023-03-31T07:28:08;98703.06;;;0.32;72.92
50672;BME280;46021;55.882;37.654;2023-03-31T07:30:37;98700.47;;;0.37;73.30
50672;BME280;46021;55.882;37.654;2023-03-31T07:33:04;98693.63;;;0.39;73.61
50672;BME280;46021;55.882;37.654;2023-03-31T07:35:32;98690.16;;;0.43;72.05
50672;BME280;46021;55.882;37.654;2023-03-31T07:37:59;98701.19;;;0.59;72.93
50672;BME280;46021;55.882;37.654;2023-03-31T07:40:28;98689.13;;;0.67;73.45
50672;BME280;46021;55.882;37.654;2023-03-31T07:42:55;98698.50;;;0.76;73.47
50672;BME280;46021;55.882;37.654;2023-03-31T07:45:24;98695.81;;;0.87;71.87
50672;BME280;46021;55.882;37.654;2023-03-31T07:47:53;98697.47;;;0.94;71.85
50672;BME280;46021;55.882;37.654;2023-03-31T07:50:20;98695.78;;;0.93;72.05
50672;BME280;46021;55.882;37.654;2023-03-31T07:52:50;98695.88;;;0.81;70.48
50672;BME280;46021;55.882;37.654;2023-03-31T07:55:17;98693.47;;;0.61;70.32
50672;BME280;46021;55.882;37.654;2023-03-31T07:57:45;98705.41;;;0.65;71.58
50672;BME280;46021;55.882;37.654;2023-03-31T08:00:14;98706.31;;;0.61;72.50
50672;BME280;46021;55.882;37.654;2023-03-31T08:02:41;98697.78;;;0.54;72.68
50672;BME280;46021;55.882;37.654;2023-03-31T08:05:11;98698.63;;;0.59;71.81
50672;BME280;46021;55.882;37.654;2023-03-31T08:07:41;98686.69;;;0.53;72.26
50672;BME280;46021;55.882;37.654;2023-03-31T08:10:12;98688.38;;;0.54;72.00
50672;BME280;46021;55.882;37.654;2023-03-31T08:12:40;98682.34;;;0.60;71.55
50672;BME280;46021;55.882;37.654;2023-03-31T08:15:07;98676.31;;;0.67;71.23
50672;BME280;46021;55.882;37.654;2023-03-31T08:17:35;98672.09;;;0.60;70.95
50672;BME280;46021;55.882;37.654;2023-03-31T08:20:04;98659.97;;;0.77;71.14
50672;BME280;46021;55.882;37.654;2023-03-31T08:22:34;98661.66;;;0.82;71.38
50672;BME280;46021;55.882;37.654;2023-03-31T08:25:01;98666.81;;;0.80;71.50
50672;BME280;46021;55.882;37.654;2023-03-31T08:27:32;98658.22;;;0.86;71.18
50672;BME280;46021;55.882;37.654;2023-03-31T08:29:59;98661.47;;;1.00;70.43
50672;BME280;46021;55.882;37.654;2023-03-31T08:32:30;98661.53;;;0.94;70.63
50672;BME280;46021;55.882;37.654;2023-03-31T08:34:57;98654.69;;;0.96;71.11
50672;BME280;46021;55.882;37.654;2023-03-31T08:37:25;98651.47;;;0.74;69.12
50672;BME280;46021;55.882;37.654;2023-03-31T08:39:55;98653.06;;;0.86;70.57
50672;BME280;46021;55.882;37.654;2023-03-31T08:42:29;98651.31;;;0.91;71.16
50672;BME280;46021;55.882;37.654;2023-03-31T08:45:02;98639.34;;;0.93;70.98
50672;BME280;46021;55.882;37.654;2023-03-31T08:47:33;98637.53;;;1.03;69.82
50672;BME280;46021;55.882;37.654;2023-03-31T08:50:05;98622.13;;;1.04;69.80
50672;BME280;46021;55.882;37.654;2023-03-31T08:52:35;98615.91;;;1.22;70.94
50672;BME280;46021;55.882;37.654;2023-03-31T08:55:11;98625.91;;;1.45;70.91
50672;BME280;46021;55.882;37.654;2023-03-31T08:57:51;98615.38;;;1.67;69.26
50672;BME280;46021;55.882;37.654;2023-03-31T09:00:22;98599.81;;;1.78;69.87
50672;BME280;46021;55.882;37.654;2023-03-31T09:02:54;98599.63;;;1.93;68.67
50672;BME280;46021;55.882;37.654;2023-03-31T09:05:45;98608.88;;;2.02;68.02
50672;BME280;46021;55.882;37.654;2023-03-31T09:08:31;98604.41;;;2.14;68.57
50672;BME280;46021;55.882;37.654;2023-03-31T09:11:07;98598.22;;;2.26;68.86
50672;BME280;46021;55.882;37.654;2023-03-31T09:13:56;98600.66;;;2.36;67.88
50672;BME280;46021;55.882;37.654;2023-03-31T09:16:32;98598.22;;;2.26;67.41
50672;BME280;46021;55.882;37.654;2023-03-31T09:19:02;98604.22;;;2.27;67.46
50672;BME280;46021;55.882;37.654;2023-03-31T09:21:31;98590.59;;;2.22;66.97
50672;BME280;46021;55.882;37.654;2023-03-31T09:24:05;98594.09;;;2.18;67.34
50672;BME280;46021;55.882;37.654;2023-03-31T09:26:39;98588.19;;;2.11;67.50
50672;BME280;46021;55.882;37.654;2023-03-31T09:29:12;98585.13;;;1.87;67.14
50672;BME280;46021;55.882;37.654;2023-03-31T09:31:44;98574.22;;;1.70;67.06
50672;BME280;46021;55.882;37.654;2023-03-31T09:34:12;98582.63;;;1.81;67.44
50672;BME280;46021;55.882;37.654;2023-03-31T09:36:40;98574.78;;;1.90;67.59
50672;BME280;46021;55.882;37.654;2023-03-31T09:39:11;98570.69;;;1.79;67.39
50672;BME280;46021;55.882;37.654;2023-03-31T09:41:42;98561.94;;;1.90;67.22
50672;BME280;46021;55.882;37.654;2023-03-31T09:44:21;98566.31;;;1.85;66.88
50672;BME280;46021;55.882;37.654;2023-03-31T09:46:49;98556.81;;;1.89;67.39
50672;BME280;46021;55.882;37.654;2023-03-31T09:49:19;98552.16;;;2.14;67.45
50672;BME280;46021;55.882;37.654;2023-03-31T09:51:50;98544.31;;;2.23;67.40
50672;BME280;46021;55.882;37.654;2023-03-31T09:54:25;98531.19;;;2.39;67.05
50672;BME280;46021;55.882;37.654;2023-03-31T09:56:57;98540.41;;;2.50;66.62
50672;BME280;46021;55.882;37.654;2023-03-31T09:59:30;98544.63;;;2.53;66.23
50672;BME280;46021;55.882;37.654;2023-03-31T10:02:01;98533.03;;;2.30;65.63
50672;BME280;46021;55.882;37.654;2023-03-31T10:04:31;98533.09;;;2.27;65.79
50672;BME280;46021;55.882;37.654;2023-03-31T10:07:00;98535.56;;;2.33;66.29
50672;BME280;46021;55.882;37.654;2023-03-31T10:09:31;98520.28;;;2.23;65.85
50672;BME280;46021;55.882;37.654;2023-03-31T10:12:03;98516.72;;;2.33;66.51
50672;BME280;46021;55.882;37.654;2023-03-31T10:14:40;98520.09;;;2.37;65.92
50672;BME280;46021;55.882;37.654;2023-03-31T10:17:14;98519.31;;;2.31;65.91
50672;BME280;46021;55.882;37.654;2023-03-31T10:19:47;98519.41;;;2.25;65.83
50672;BME280;46021;55.882;37.654;2023-03-31T10:22:17;98509.19;;;2.22;65.73
50672;BME280;46021;55.882;37.654;2023-03-31T10:24:53;98518.47;;;2.29;66.32
50672;BME280;46021;55.882;37.654;2023-03-31T10:27:24;98519.19;;;2.38;66.25
50672;BME280;46021;55.882;37.654;2023-03-31T10:29:53;98516.50;;;2.44;66.10
50672;BME280;46021;55.882;37.654;2023-03-31T10:32:23;98512.28;;;2.40;65.86
50672;BME280;46021;55.882;37.654;2023-03-31T10:34:54;98514.28;;;2.25;65.67
50672;BME280;46021;55.882;37.654;2023-03-31T10:37:24;98504.19;;;2.13;66.07
50672;BME280;46021;55.882;37.654;2023-03-31T10:39:56;98504.19;;;2.11;66.18
50672;BME280;46021;55.882;37.654;2023-03-31T10:42:26;98499.00;;;2.16;66.19
50672;BME280;46021;55.882;37.654;2023-03-31T10:45:10;98492.22;;;2.12;65.85
50672;BME280;46021;55.882;37.654;2023-03-31T10:47:38;98478.34;;;2.19;66.28
50672;BME280;46021;55.882;37.654;2023-03-31T10:50:12;98486.66;;;2.37;66.03
50672;BME280;46021;55.882;37.654;2023-03-31T10:52:43;98485.09;;;2.26;66.46
50672;BME280;46021;55.882;37.654;2023-03-31T10:55:11;98483.34;;;2.28;66.11
50672;BME280;46021;55.882;37.654;2023-03-31T10:57:46;98468.16;;;2.16;66.28
50672;BME280;46021;55.882;37.654;2023-03-31T11:00:23;98473.22;;;2.19;66.18
50672;BME280;46021;55.882;37.654;2023-03-31T11:03:10;98465.03;;;1.99;66.39
50672;BME280;46021;55.882;37.654;2023-03-31T11:05:45;98477.88;;;1.99;66.93
50672;BME280;46021;55.882;37.654;2023-03-31T11:08:24;98470.25;;;1.92;66.78
50672;BME280;46021;55.882;37.654;2023-03-31T11:11:06;98476.19;;;1.96;67.15
50672;BME280;46021;55.882;37.654;2023-03-31T11:13:41;98473.56;;;2.01;67.62
50672;BME280;46021;55.882;37.654;2023-03-31T11:16:17;98470.09;;;2.02;67.01
50672;BME280;46021;55.882;37.654;2023-03-31T11:18:56;98466.50;;;2.12;67.85
50672;BME280;46021;55.882;37.654;2023-03-31T11:21:35;98455.31;;;2.16;67.28
50672;BME280;46021;55.882;37.654;2023-03-31T11:24:09;98466.56;;;2.09;67.15
50672;BME280;46021;55.882;37.654;2023-03-31T11:26:47;98453.06;;;1.94;67.87
50672;BME280;46021;55.882;37.654;2023-03-31T11:29:29;98458.00;;;2.08;68.13
50672;BME280;46021;55.882;37.654;2023-03-31T11:32:11;98450.34;;;2.05;67.51
50672;BME280;46021;55.882;37.654;2023-03-31T11:34:50;98448.16;;;1.82;68.13
50672;BME280;46021;55.882;37.654;2023-03-31T11:37:30;98439.63;;;1.80;67.83
50672;BME280;46021;55.882;37.654;2023-03-31T11:40:13;98451.50;;;1.87;68.91
50672;BME280;46021;55.882;37.654;2023-03-31T11:42:47;98444.63;;;1.89;68.93
50672;BME280;46021;55.882;37.654;2023-03-31T11:45:22;98437.84;;;1.85;69.05
50672;BME280;46021;55.882;37.654;2023-03-31T11:47:55;98429.16;;;1.91;68.45
50672;BME280;46021;55.882;37.654;2023-03-31T11:50:26;98435.88;;;2.00;68.56
50672;BME280;46021;55.882;37.654;2023-03-31T11:52:58;98434.25;;;1.94;69.01
50672;BME280;46021;55.882;37.654;2023-03-31T11:55:28;98424.31;;;1.74;68.61
50672;BME280;46021;55.882;37.654;2023-03-31T11:58:01;98423.56;;;1.67;68.97
50672;BME280;46021;55.882;37.654;2023-03-31T12:00:35;98422.66;;;1.70;69.87
50672;BME280;46021;55.882;37.654;2023-03-31T12:03:10;98425.47;;;1.56;69.86
50672;BME280;46021;55.882;37.654;2023-03-31T12:05:41;98415.44;;;1.39;70.42
50672;BME280;46021;55.882;37.654;2023-03-31T12:08:14;98422.03;;;1.55;70.41
50672;BME280;46021;55.882;37.654;2023-03-31T12:10:45;98416.16;;;1.47;70.61
50672;BME280;46021;55.882;37.654;2023-03-31T12:13:30;98412.63;;;1.54;70.66
50672;BME280;46021;55.882;37.654;2023-03-31T12:16:04;98409.06;;;1.65;70.27
50672;BME280;46021;55.882;37.654;2023-03-31T12:18:35;98402.97;;;1.70;69.68
50672;BME280;46021;55.882;37.654;2023-03-31T12:21:05;98388.56;;;1.62;69.93
50672;BME280;46021;55.882;37.654;2023-03-31T12:23:39;98392.78;;;1.64;69.77
50672;BME280;46021;55.882;37.654;2023-03-31T12:26:16;98391.09;;;1.65;70.32
50672;BME280;46021;55.882;37.654;2023-03-31T12:28:53;98384.31;;;1.59;70.17
50672;BME280;46021;55.882;37.654;2023-03-31T12:31:25;98380.84;;;1.62;70.28
50672;BME280;46021;55.882;37.654;2023-03-31T12:33:56;98375.84;;;1.54;70.11
50672;BME280;46021;55.882;37.654;2023-03-31T12:36:33;98376.78;;;1.48;70.87
50672;BME280;46021;55.882;37.654;2023-03-31T12:39:12;98380.22;;;1.47;70.32
50672;BME280;46021;55.882;37.654;2023-03-31T12:41:58;98381.13;;;1.45;71.23
50672;BME280;46021;55.882;37.654;2023-03-31T12:44:37;98381.81;;;1.54;70.99
50672;BME280;46021;55.882;37.654;2023-03-31T12:47:41;98359.75;;;1.44;70.37
50672;BME280;46021;55.882;37.654;2023-03-31T12:50:36;98373.41;;;1.46;71.20
50672;BME280;46021;55.882;37.654;2023-03-31T12:53:15;98369.06;;;1.50;70.50
50672;BME280;46021;55.882;37.654;2023-03-31T12:55:47;98357.16;;;1.46;70.25
50672;BME280;46021;55.882;37.654;2023-03-31T12:58:39;98371.75;;;1.42;70.70
50672;BME280;46021;55.882;37.654;2023-03-31T13:01:09;98368.25;;;1.48;70.79
50672;BME280;46021;55.882;37.654;2023-03-31T13:03:52;98371.44;;;1.61;70.53
50672;BME280;46021;55.882;37.654;2023-03-31T13:09:54;98357.03;;;1.53;70.54
50672;BME280;46021;55.882;37.654;2023-03-31T13:12:23;98362.88;;;1.60;71.10
50672;BME280;46021;55.882;37.654;2023-03-31T13:14:53;98350.88;;;1.61;71.23
50672;BME280;46021;55.882;37.654;2023-03-31T13:17:29;98352.47;;;1.68;71.10
50672;BME280;46021;55.882;37.654;2023-03-31T13:20:15;98332.97;;;1.58;71.05
50672;BME280;46021;55.882;37.654;2023-03-31T13:22:45;98342.47;;;1.52;71.05
50672;BME280;46021;55.882;37.654;2023-03-31T13:25:34;98348.69;;;1.39;70.81
50672;BME280;46021;55.882;37.654;2023-03-31T13:28:26;98360.59;;;1.45;71.36
50672;BME280;46021;55.882;37.654;2023-03-31T13:30:58;98353.84;;;1.38;71.54
50672;BME280;46021;55.882;37.654;2023-03-31T13:33:37;98348.78;;;1.34;71.97
50672;BME280;46021;55.882;37.654;2023-03-31T13:39:36;98341.00;;;1.39;71.59